Kezdőlap
METAR-TAF:

METAR-TAF

Repülőterek :

Beverly, Massachusetts, Amerikai Egyesült Államok

földrajzi szélesség: 42-35-01N, földrajzi hosszúság: 070-54-59W, magasság: 33 m

Jelenlegi meteorológiai megfigyelések

A jelentés 41 perccel ezelõtt készült, 13:53 UTC
Északnyugati szél 8 kt
Hőmérséklet -9°C
Páratartalom 52%
Légköri nyomás 1030 hPa
Látótávolság: 16.1 km
Derült ég

METAR: KBVY 211353Z 32008KT 10SM CLR M09/M17 A3042 RMK AO2 SLP299 T10891172 $

Idő: 09:34 (14:34 UTC)


TAF: hiányzik

Meteorológiai megfigyelések és előrejelzések több, mint 4000 repülőtéren (METAR és TAF jelentéseket).

A térképen piros és sárga pontok jelzik az elérhető meteorológiai állomásokat.

Mozgassa az egeret a pont fölött, hogy megjelenjen az állomás neve.

Azután kattintson az időjárási megfigyelések és előrejelzések megtekintéséhez.

A térkép megváltoztatása: kattintson a fekete keresztel jelölt zöld gombra ráközelítéshez, a vonallal jelölt zöld gombra távolításhoz, vagy a zöld nyilakra a szomszédos térképek eléréséhez.


METAR-TAF: